sensor_id;sensor_type;location;lat;lon;timestamp;P1;durP1;ratioP1;P2;durP2;ratioP2
6860;SDS011;3469;47.060;15.460;2022-11-24T00:01:26;25.97;;;14.80;;
6860;SDS011;3469;47.060;15.460;2022-11-24T00:03:56;23.10;;;14.97;;
6860;SDS011;3469;47.060;15.460;2022-11-24T00:06:25;27.20;;;16.33;;
6860;SDS011;3469;47.060;15.460;2022-11-24T00:08:56;110.90;;;23.60;;
6860;SDS011;3469;47.060;15.460;2022-11-24T00:11:25;85.37;;;20.40;;
6860;SDS011;3469;47.060;15.460;2022-11-24T00:13:54;53.03;;;20.50;;
6860;SDS011;3469;47.060;15.460;2022-11-24T00:16:24;90.70;;;22.90;;
6860;SDS011;3469;47.060;15.460;2022-11-24T00:18:55;171.93;;;24.37;;
6860;SDS011;3469;47.060;15.460;2022-11-24T00:21:25;132.60;;;23.90;;
6860;SDS011;3469;47.060;15.460;2022-11-24T00:23:55;98.80;;;20.10;;
6860;SDS011;3469;47.060;15.460;2022-11-24T00:26:25;97.90;;;20.17;;
6860;SDS011;3469;47.060;15.460;2022-11-24T00:28:55;102.40;;;18.80;;
6860;SDS011;3469;47.060;15.460;2022-11-24T00:31:25;71.40;;;18.37;;
6860;SDS011;3469;47.060;15.460;2022-11-24T00:33:54;71.77;;;18.10;;
6860;SDS011;3469;47.060;15.460;2022-11-24T00:36:24;63.97;;;18.43;;
6860;SDS011;3469;47.060;15.460;2022-11-24T00:38:56;45.10;;;18.53;;
6860;SDS011;3469;47.060;15.460;2022-11-24T00:41:25;105.23;;;23.00;;
6860;SDS011;3469;47.060;15.460;2022-11-24T00:43:55;144.63;;;24.27;;
6860;SDS011;3469;47.060;15.460;2022-11-24T00:46:23;49.83;;;19.80;;
6860;SDS011;3469;47.060;15.460;2022-11-24T00:48:52;259.27;;;31.37;;
6860;SDS011;3469;47.060;15.460;2022-11-24T00:51:21;140.93;;;25.33;;
6860;SDS011;3469;47.060;15.460;2022-11-24T00:53:52;122.87;;;21.83;;
6860;SDS011;3469;47.060;15.460;2022-11-24T00:56:23;159.40;;;26.47;;
6860;SDS011;3469;47.060;15.460;2022-11-24T00:58:52;66.03;;;21.10;;
6860;SDS011;3469;47.060;15.460;2022-11-24T01:01:21;118.27;;;22.53;;
6860;SDS011;3469;47.060;15.460;2022-11-24T01:03:51;99.47;;;18.80;;
6860;SDS011;3469;47.060;15.460;2022-11-24T01:06:21;77.53;;;18.50;;
6860;SDS011;3469;47.060;15.460;2022-11-24T01:08:50;95.93;;;20.00;;
6860;SDS011;3469;47.060;15.460;2022-11-24T01:11:19;68.67;;;19.07;;
6860;SDS011;3469;47.060;15.460;2022-11-24T01:13:52;90.57;;;19.80;;
6860;SDS011;3469;47.060;15.460;2022-11-24T01:16:22;80.40;;;17.83;;
6860;SDS011;3469;47.060;15.460;2022-11-24T01:18:51;139.47;;;22.30;;
6860;SDS011;3469;47.060;15.460;2022-11-24T01:21:20;48.73;;;17.33;;
6860;SDS011;3469;47.060;15.460;2022-11-24T01:23:49;88.53;;;15.90;;
6860;SDS011;3469;47.060;15.460;2022-11-24T01:26:18;98.50;;;19.43;;
6860;SDS011;3469;47.060;15.460;2022-11-24T01:28:52;79.07;;;18.10;;
6860;SDS011;3469;47.060;15.460;2022-11-24T01:31:22;154.50;;;22.23;;
6860;SDS011;3469;47.060;15.460;2022-11-24T01:33:51;78.80;;;18.23;;
6860;SDS011;3469;47.060;15.460;2022-11-24T01:36:19;91.30;;;18.03;;
6860;SDS011;3469;47.060;15.460;2022-11-24T01:38:48;79.00;;;17.53;;
6860;SDS011;3469;47.060;15.460;2022-11-24T01:41:17;104.60;;;20.00;;
6860;SDS011;3469;47.060;15.460;2022-11-24T01:43:47;90.87;;;19.77;;
6860;SDS011;3469;47.060;15.460;2022-11-24T01:46:18;47.10;;;15.27;;
6860;SDS011;3469;47.060;15.460;2022-11-24T01:48:50;90.27;;;18.57;;
6860;SDS011;3469;47.060;15.460;2022-11-24T01:51:22;58.50;;;14.57;;
6860;SDS011;3469;47.060;15.460;2022-11-24T01:53:53;22.30;;;11.80;;
6860;SDS011;3469;47.060;15.460;2022-11-24T01:56:23;46.90;;;15.37;;
6860;SDS011;3469;47.060;15.460;2022-11-24T01:58:52;43.30;;;13.93;;
6860;SDS011;3469;47.060;15.460;2022-11-24T02:01:25;78.27;;;18.30;;
6860;SDS011;3469;47.060;15.460;2022-11-24T02:03:55;184.20;;;22.03;;
6860;SDS011;3469;47.060;15.460;2022-11-24T02:06:25;200.73;;;21.50;;
6860;SDS011;3469;47.060;15.460;2022-11-24T02:08:55;99.83;;;17.80;;
6860;SDS011;3469;47.060;15.460;2022-11-24T02:11:27;127.50;;;19.70;;
6860;SDS011;3469;47.060;15.460;2022-11-24T02:13:57;144.17;;;19.63;;
6860;SDS011;3469;47.060;15.460;2022-11-24T02:16:27;100.03;;;17.77;;
6860;SDS011;3469;47.060;15.460;2022-11-24T02:18:56;112.77;;;17.00;;
6860;SDS011;3469;47.060;15.460;2022-11-24T02:21:24;63.70;;;13.90;;
6860;SDS011;3469;47.060;15.460;2022-11-24T02:23:54;90.60;;;16.83;;
6860;SDS011;3469;47.060;15.460;2022-11-24T02:26:34;71.73;;;14.33;;
6860;SDS011;3469;47.060;15.460;2022-11-24T02:29:06;23.80;;;12.03;;
6860;SDS011;3469;47.060;15.460;2022-11-24T02:31:36;37.63;;;12.83;;
6860;SDS011;3469;47.060;15.460;2022-11-24T02:34:04;37.67;;;13.60;;
6860;SDS011;3469;47.060;15.460;2022-11-24T02:36:32;28.47;;;11.50;;
6860;SDS011;3469;47.060;15.460;2022-11-24T02:39:01;34.30;;;12.80;;
6860;SDS011;3469;47.060;15.460;2022-11-24T02:41:29;27.97;;;11.70;;
6860;SDS011;3469;47.060;15.460;2022-11-24T02:43:59;15.00;;;8.73;;
6860;SDS011;3469;47.060;15.460;2022-11-24T02:46:28;32.07;;;16.97;;
6860;SDS011;3469;47.060;15.460;2022-11-24T02:48:57;29.83;;;13.20;;
6860;SDS011;3469;47.060;15.460;2022-11-24T02:51:27;29.20;;;14.40;;
6860;SDS011;3469;47.060;15.460;2022-11-24T02:53:56;24.93;;;14.13;;
6860;SDS011;3469;47.060;15.460;2022-11-24T02:56:24;22.43;;;13.20;;
6860;SDS011;3469;47.060;15.460;2022-11-24T02:58:52;36.13;;;16.90;;
6860;SDS011;3469;47.060;15.460;2022-11-24T03:01:22;18.97;;;12.97;;
6860;SDS011;3469;47.060;15.460;2022-11-24T03:03:51;35.77;;;15.63;;
6860;SDS011;3469;47.060;15.460;2022-11-24T03:06:19;26.73;;;13.40;;
6860;SDS011;3469;47.060;15.460;2022-11-24T03:08:47;43.03;;;16.17;;
6860;SDS011;3469;47.060;15.460;2022-11-24T03:11:15;33.00;;;15.97;;
6860;SDS011;3469;47.060;15.460;2022-11-24T03:13:44;46.92;;;15.77;;
6860;SDS011;3469;47.060;15.460;2022-11-24T03:16:12;45.50;;;16.97;;
6860;SDS011;3469;47.060;15.460;2022-11-24T03:18:42;36.63;;;15.27;;
6860;SDS011;3469;47.060;15.460;2022-11-24T03:21:11;36.53;;;14.60;;
6860;SDS011;3469;47.060;15.460;2022-11-24T03:23:39;68.07;;;16.50;;
6860;SDS011;3469;47.060;15.460;2022-11-24T03:26:08;27.10;;;14.00;;
6860;SDS011;3469;47.060;15.460;2022-11-24T03:28:37;33.70;;;14.90;;
6860;SDS011;3469;47.060;15.460;2022-11-24T03:31:05;40.13;;;14.50;;
6860;SDS011;3469;47.060;15.460;2022-11-24T03:33:34;37.83;;;13.50;;
6860;SDS011;3469;47.060;15.460;2022-11-24T03:36:05;23.60;;;12.43;;
6860;SDS011;3469;47.060;15.460;2022-11-24T03:38:34;37.00;;;14.70;;
6860;SDS011;3469;47.060;15.460;2022-11-24T03:41:02;29.87;;;14.07;;
6860;SDS011;3469;47.060;15.460;2022-11-24T03:43:31;25.63;;;12.03;;
6860;SDS011;3469;47.060;15.460;2022-11-24T03:46:04;26.00;;;12.60;;
6860;SDS011;3469;47.060;15.460;2022-11-24T03:48:33;24.33;;;12.87;;
6860;SDS011;3469;47.060;15.460;2022-11-24T03:51:01;39.63;;;16.20;;
6860;SDS011;3469;47.060;15.460;2022-11-24T03:53:32;34.03;;;13.03;;
6860;SDS011;3469;47.060;15.460;2022-11-24T03:56:00;23.17;;;12.80;;
6860;SDS011;3469;47.060;15.460;2022-11-24T03:58:29;41.60;;;14.80;;
6860;SDS011;3469;47.060;15.460;2022-11-24T04:00:57;54.63;;;14.63;;
6860;SDS011;3469;47.060;15.460;2022-11-24T04:03:26;50.83;;;16.03;;
6860;SDS011;3469;47.060;15.460;2022-11-24T04:05:54;34.83;;;14.97;;
6860;SDS011;3469;47.060;15.460;2022-11-24T04:08:23;21.97;;;13.17;;
6860;SDS011;3469;47.060;15.460;2022-11-24T04:10:52;21.30;;;13.80;;
6860;SDS011;3469;47.060;15.460;2022-11-24T04:13:21;27.17;;;15.43;;
6860;SDS011;3469;47.060;15.460;2022-11-24T04:15:50;29.13;;;14.80;;
6860;SDS011;3469;47.060;15.460;2022-11-24T04:18:19;58.10;;;18.63;;
6860;SDS011;3469;47.060;15.460;2022-11-24T04:20:47;68.80;;;19.07;;
6860;SDS011;3469;47.060;15.460;2022-11-24T04:23:16;58.47;;;17.50;;
6860;SDS011;3469;47.060;15.460;2022-11-24T04:25:45;65.57;;;18.77;;
6860;SDS011;3469;47.060;15.460;2022-11-24T04:28:14;75.73;;;21.40;;
6860;SDS011;3469;47.060;15.460;2022-11-24T04:30:43;48.57;;;18.40;;
6860;SDS011;3469;47.060;15.460;2022-11-24T04:33:11;74.87;;;17.37;;
6860;SDS011;3469;47.060;15.460;2022-11-24T04:35:40;38.33;;;16.67;;
6860;SDS011;3469;47.060;15.460;2022-11-24T04:38:08;41.00;;;19.07;;
6860;SDS011;3469;47.060;15.460;2022-11-24T04:40:36;51.03;;;17.17;;
6860;SDS011;3469;47.060;15.460;2022-11-24T04:43:05;49.83;;;17.27;;
6860;SDS011;3469;47.060;15.460;2022-11-24T04:45:35;104.17;;;21.30;;
6860;SDS011;3469;47.060;15.460;2022-11-24T04:48:03;69.13;;;17.60;;
6860;SDS011;3469;47.060;15.460;2022-11-24T04:50:32;64.63;;;19.10;;
6860;SDS011;3469;47.060;15.460;2022-11-24T04:53:00;39.37;;;17.20;;
6860;SDS011;3469;47.060;15.460;2022-11-24T04:55:29;84.13;;;19.70;;
6860;SDS011;3469;47.060;15.460;2022-11-24T04:57:58;33.60;;;17.20;;
6860;SDS011;3469;47.060;15.460;2022-11-24T05:00:26;63.43;;;17.20;;
6860;SDS011;3469;47.060;15.460;2022-11-24T05:02:56;43.43;;;14.97;;
6860;SDS011;3469;47.060;15.460;2022-11-24T05:05:24;36.80;;;15.17;;
6860;SDS011;3469;47.060;15.460;2022-11-24T05:07:53;82.00;;;18.10;;
6860;SDS011;3469;47.060;15.460;2022-11-24T05:10:21;25.97;;;14.97;;
6860;SDS011;3469;47.060;15.460;2022-11-24T05:13:02;26.23;;;15.27;;
6860;SDS011;3469;47.060;15.460;2022-11-24T05:15:31;41.57;;;16.23;;
6860;SDS011;3469;47.060;15.460;2022-11-24T05:18:03;33.37;;;15.83;;
6860;SDS011;3469;47.060;15.460;2022-11-24T05:20:32;37.07;;;15.87;;
6860;SDS011;3469;47.060;15.460;2022-11-24T05:23:01;22.87;;;15.03;;
6860;SDS011;3469;47.060;15.460;2022-11-24T05:25:30;26.43;;;14.70;;
6860;SDS011;3469;47.060;15.460;2022-11-24T05:27:59;45.13;;;17.57;;
6860;SDS011;3469;47.060;15.460;2022-11-24T05:30:28;21.90;;;14.13;;
6860;SDS011;3469;47.060;15.460;2022-11-24T05:32:57;26.00;;;14.70;;
6860;SDS011;3469;47.060;15.460;2022-11-24T05:35:27;28.60;;;14.83;;
6860;SDS011;3469;47.060;15.460;2022-11-24T05:37:57;23.97;;;14.20;;
6860;SDS011;3469;47.060;15.460;2022-11-24T05:40:26;23.40;;;15.00;;
6860;SDS011;3469;47.060;15.460;2022-11-24T05:42:55;23.60;;;14.00;;
6860;SDS011;3469;47.060;15.460;2022-11-24T05:45:23;24.63;;;15.13;;
6860;SDS011;3469;47.060;15.460;2022-11-24T05:47:51;20.53;;;14.00;;
6860;SDS011;3469;47.060;15.460;2022-11-24T05:50:20;25.97;;;13.60;;
6860;SDS011;3469;47.060;15.460;2022-11-24T05:52:50;17.13;;;12.20;;
6860;SDS011;3469;47.060;15.460;2022-11-24T05:55:19;20.70;;;14.53;;
6860;SDS011;3469;47.060;15.460;2022-11-24T05:57:47;18.23;;;11.90;;
6860;SDS011;3469;47.060;15.460;2022-11-24T06:00:15;19.67;;;12.70;;
6860;SDS011;3469;47.060;15.460;2022-11-24T06:02:45;18.73;;;12.50;;
6860;SDS011;3469;47.060;15.460;2022-11-24T06:05:15;21.10;;;12.87;;
6860;SDS011;3469;47.060;15.460;2022-11-24T06:07:44;18.20;;;12.87;;
6860;SDS011;3469;47.060;15.460;2022-11-24T06:10:15;19.80;;;12.77;;
6860;SDS011;3469;47.060;15.460;2022-11-24T06:12:45;18.50;;;12.50;;
6860;SDS011;3469;47.060;15.460;2022-11-24T06:15:16;15.00;;;10.43;;
6860;SDS011;3469;47.060;15.460;2022-11-24T06:17:51;19.07;;;11.83;;
6860;SDS011;3469;47.060;15.460;2022-11-24T06:20:19;17.50;;;12.37;;
6860;SDS011;3469;47.060;15.460;2022-11-24T06:22:51;15.17;;;11.60;;
6860;SDS011;3469;47.060;15.460;2022-11-24T06:25:21;17.87;;;12.90;;
6860;SDS011;3469;47.060;15.460;2022-11-24T06:27:49;18.53;;;12.53;;
6860;SDS011;3469;47.060;15.460;2022-11-24T06:30:18;22.40;;;14.67;;
6860;SDS011;3469;47.060;15.460;2022-11-24T06:32:46;22.37;;;12.73;;
6860;SDS011;3469;47.060;15.460;2022-11-24T06:35:15;24.53;;;16.10;;
6860;SDS011;3469;47.060;15.460;2022-11-24T06:37:44;21.83;;;14.03;;
6860;SDS011;3469;47.060;15.460;2022-11-24T06:40:12;24.63;;;16.70;;
6860;SDS011;3469;47.060;15.460;2022-11-24T06:42:42;26.50;;;17.30;;
6860;SDS011;3469;47.060;15.460;2022-11-24T06:45:16;25.93;;;17.33;;
6860;SDS011;3469;47.060;15.460;2022-11-24T06:47:45;27.83;;;17.33;;
6860;SDS011;3469;47.060;15.460;2022-11-24T06:50:13;50.93;;;16.83;;
6860;SDS011;3469;47.060;15.460;2022-11-24T06:52:42;27.00;;;16.10;;
6860;SDS011;3469;47.060;15.460;2022-11-24T06:55:11;26.20;;;16.10;;
6860;SDS011;3469;47.060;15.460;2022-11-24T06:57:39;27.20;;;16.40;;
6860;SDS011;3469;47.060;15.460;2022-11-24T07:00:10;20.17;;;13.43;;
6860;SDS011;3469;47.060;15.460;2022-11-24T07:02:39;32.87;;;16.00;;
6860;SDS011;3469;47.060;15.460;2022-11-24T07:05:11;31.33;;;18.93;;
6860;SDS011;3469;47.060;15.460;2022-11-24T07:07:40;34.73;;;19.77;;
6860;SDS011;3469;47.060;15.460;2022-11-24T07:10:08;28.03;;;17.50;;
6860;SDS011;3469;47.060;15.460;2022-11-24T07:12:37;33.20;;;19.73;;
6860;SDS011;3469;47.060;15.460;2022-11-24T07:15:06;45.23;;;20.80;;
6860;SDS011;3469;47.060;15.460;2022-11-24T07:17:37;52.23;;;20.23;;
6860;SDS011;3469;47.060;15.460;2022-11-24T07:20:06;35.83;;;22.57;;
6860;SDS011;3469;47.060;15.460;2022-11-24T07:22:35;34.77;;;19.47;;
6860;SDS011;3469;47.060;15.460;2022-11-24T07:25:03;28.37;;;17.47;;
6860;SDS011;3469;47.060;15.460;2022-11-24T07:27:35;24.87;;;16.40;;
6860;SDS011;3469;47.060;15.460;2022-11-24T07:30:04;25.13;;;15.20;;
6860;SDS011;3469;47.060;15.460;2022-11-24T07:32:33;31.07;;;17.40;;
6860;SDS011;3469;47.060;15.460;2022-11-24T07:35:03;35.83;;;21.00;;
6860;SDS011;3469;47.060;15.460;2022-11-24T07:37:32;25.40;;;16.07;;
6860;SDS011;3469;47.060;15.460;2022-11-24T07:40:00;34.40;;;19.90;;
6860;SDS011;3469;47.060;15.460;2022-11-24T07:42:28;32.20;;;17.83;;
6860;SDS011;3469;47.060;15.460;2022-11-24T07:44:57;24.87;;;16.77;;
6860;SDS011;3469;47.060;15.460;2022-11-24T07:47:25;24.07;;;16.83;;
6860;SDS011;3469;47.060;15.460;2022-11-24T07:49:53;26.90;;;18.13;;
6860;SDS011;3469;47.060;15.460;2022-11-24T07:52:23;22.37;;;16.40;;
6860;SDS011;3469;47.060;15.460;2022-11-24T07:54:52;27.83;;;18.47;;
6860;SDS011;3469;47.060;15.460;2022-11-24T07:57:20;27.40;;;17.97;;
6860;SDS011;3469;47.060;15.460;2022-11-24T07:59:49;24.03;;;15.80;;
6860;SDS011;3469;47.060;15.460;2022-11-24T08:02:17;20.37;;;15.77;;
6860;SDS011;3469;47.060;15.460;2022-11-24T08:04:45;19.43;;;14.43;;
6860;SDS011;3469;47.060;15.460;2022-11-24T08:07:14;18.83;;;13.60;;
6860;SDS011;3469;47.060;15.460;2022-11-24T08:09:44;20.53;;;15.30;;
6860;SDS011;3469;47.060;15.460;2022-11-24T08:12:12;27.53;;;15.60;;
6860;SDS011;3469;47.060;15.460;2022-11-24T08:14:43;20.43;;;13.20;;
6860;SDS011;3469;47.060;15.460;2022-11-24T08:17:11;20.13;;;12.90;;
6860;SDS011;3469;47.060;15.460;2022-11-24T08:19:39;17.13;;;12.47;;
6860;SDS011;3469;47.060;15.460;2022-11-24T08:22:08;19.53;;;11.57;;
6860;SDS011;3469;47.060;15.460;2022-11-24T08:24:37;20.10;;;13.53;;
6860;SDS011;3469;47.060;15.460;2022-11-24T08:27:14;16.40;;;12.07;;
6860;SDS011;3469;47.060;15.460;2022-11-24T08:29:43;24.20;;;14.57;;
6860;SDS011;3469;47.060;15.460;2022-11-24T08:32:11;18.27;;;11.70;;
6860;SDS011;3469;47.060;15.460;2022-11-24T08:34:47;14.73;;;10.97;;
6860;SDS011;3469;47.060;15.460;2022-11-24T08:37:16;11.83;;;7.80;;
6860;SDS011;3469;47.060;15.460;2022-11-24T08:39:44;14.10;;;9.67;;
6860;SDS011;3469;47.060;15.460;2022-11-24T08:42:14;15.00;;;10.57;;
6860;SDS011;3469;47.060;15.460;2022-11-24T08:44:42;16.07;;;9.57;;
6860;SDS011;3469;47.060;15.460;2022-11-24T08:47:11;13.93;;;8.27;;
6860;SDS011;3469;47.060;15.460;2022-11-24T08:49:40;14.10;;;10.20;;
6860;SDS011;3469;47.060;15.460;2022-11-24T08:52:08;24.37;;;17.00;;
6860;SDS011;3469;47.060;15.460;2022-11-24T08:54:37;24.87;;;18.20;;
6860;SDS011;3469;47.060;15.460;2022-11-24T08:57:06;17.97;;;13.80;;
6860;SDS011;3469;47.060;15.460;2022-11-24T08:59:36;20.13;;;15.70;;
6860;SDS011;3469;47.060;15.460;2022-11-24T09:02:05;19.47;;;14.17;;
6860;SDS011;3469;47.060;15.460;2022-11-24T09:04:34;16.87;;;13.00;;
6860;SDS011;3469;47.060;15.460;2022-11-24T09:07:02;27.80;;;20.23;;
6860;SDS011;3469;47.060;15.460;2022-11-24T09:09:31;25.50;;;19.67;;
6860;SDS011;3469;47.060;15.460;2022-11-24T09:11:59;23.23;;;18.47;;
6860;SDS011;3469;47.060;15.460;2022-11-24T09:14:28;20.23;;;16.03;;
6860;SDS011;3469;47.060;15.460;2022-11-24T09:16:58;18.13;;;13.03;;
6860;SDS011;3469;47.060;15.460;2022-11-24T09:19:27;17.23;;;11.40;;
6860;SDS011;3469;47.060;15.460;2022-11-24T09:21:55;13.10;;;9.77;;
6860;SDS011;3469;47.060;15.460;2022-11-24T09:24:23;16.13;;;8.97;;
6860;SDS011;3469;47.060;15.460;2022-11-24T09:26:52;11.77;;;8.13;;
6860;SDS011;3469;47.060;15.460;2022-11-24T09:29:22;8.60;;;7.37;;
6860;SDS011;3469;47.060;15.460;2022-11-24T09:31:50;11.07;;;6.97;;
6860;SDS011;3469;47.060;15.460;2022-11-24T09:34:20;12.10;;;8.33;;
6860;SDS011;3469;47.060;15.460;2022-11-24T09:36:49;11.10;;;7.23;;
6860;SDS011;3469;47.060;15.460;2022-11-24T09:39:18;9.43;;;7.60;;
6860;SDS011;3469;47.060;15.460;2022-11-24T09:41:49;9.87;;;8.23;;
6860;SDS011;3469;47.060;15.460;2022-11-24T09:47:26;16.83;;;10.77;;
6860;SDS011;3469;47.060;15.460;2022-11-24T09:50:02;15.83;;;11.40;;
6860;SDS011;3469;47.060;15.460;2022-11-24T09:52:36;22.77;;;13.47;;
6860;SDS011;3469;47.060;15.460;2022-11-24T09:55:12;19.30;;;11.43;;
6860;SDS011;3469;47.060;15.460;2022-11-24T09:57:56;19.40;;;12.40;;
6860;SDS011;3469;47.060;15.460;2022-11-24T10:00:43;17.30;;;12.50;;
6860;SDS011;3469;47.060;15.460;2022-11-24T10:03:23;19.10;;;12.00;;
6860;SDS011;3469;47.060;15.460;2022-11-24T10:05:56;15.30;;;12.17;;
6860;SDS011;3469;47.060;15.460;2022-11-24T10:08:35;23.57;;;12.57;;
6860;SDS011;3469;47.060;15.460;2022-11-24T10:11:12;18.40;;;12.90;;
6860;SDS011;3469;47.060;15.460;2022-11-24T10:16:37;17.27;;;12.07;;
6860;SDS011;3469;47.060;15.460;2022-11-24T10:19:13;15.90;;;11.80;;
6860;SDS011;3469;47.060;15.460;2022-11-24T10:21:53;16.90;;;12.50;;
6860;SDS011;3469;47.060;15.460;2022-11-24T10:24:40;15.43;;;11.17;;
6860;SDS011;3469;47.060;15.460;2022-11-24T10:27:18;16.27;;;10.87;;
6860;SDS011;3469;47.060;15.460;2022-11-24T10:29:50;10.27;;;9.20;;
6860;SDS011;3469;47.060;15.460;2022-11-24T10:32:20;15.03;;;10.07;;
6860;SDS011;3469;47.060;15.460;2022-11-24T10:34:51;10.27;;;8.23;;
6860;SDS011;3469;47.060;15.460;2022-11-24T10:37:22;10.10;;;8.37;;
6860;SDS011;3469;47.060;15.460;2022-11-24T10:39:55;10.03;;;8.70;;
6860;SDS011;3469;47.060;15.460;2022-11-24T10:42:27;8.70;;;7.80;;
6860;SDS011;3469;47.060;15.460;2022-11-24T10:44:57;11.53;;;9.43;;
6860;SDS011;3469;47.060;15.460;2022-11-24T10:47:26;11.50;;;8.73;;
6860;SDS011;3469;47.060;15.460;2022-11-24T10:49:57;10.03;;;7.57;;
6860;SDS011;3469;47.060;15.460;2022-11-24T10:52:30;10.53;;;9.40;;
6860;SDS011;3469;47.060;15.460;2022-11-24T10:55:03;12.60;;;10.13;;
6860;SDS011;3469;47.060;15.460;2022-11-24T10:57:33;13.07;;;9.20;;
6860;SDS011;3469;47.060;15.460;2022-11-24T11:00:06;11.90;;;9.80;;
6860;SDS011;3469;47.060;15.460;2022-11-24T11:03:14;10.00;;;7.87;;
6860;SDS011;3469;47.060;15.460;2022-11-24T11:05:46;10.30;;;8.27;;
6860;SDS011;3469;47.060;15.460;2022-11-24T11:08:27;9.90;;;8.10;;
6860;SDS011;3469;47.060;15.460;2022-11-24T11:13:50;12.27;;;9.70;;
6860;SDS011;3469;47.060;15.460;2022-11-24T11:16:31;12.03;;;9.53;;
6860;SDS011;3469;47.060;15.460;2022-11-24T11:19:02;10.30;;;7.80;;
6860;SDS011;3469;47.060;15.460;2022-11-24T11:21:57;8.10;;;6.50;;
6860;SDS011;3469;47.060;15.460;2022-11-24T11:24:28;11.40;;;6.13;;
6860;SDS011;3469;47.060;15.460;2022-11-24T11:26:58;6.53;;;5.07;;
6860;SDS011;3469;47.060;15.460;2022-11-24T11:29:27;7.40;;;5.13;;
6860;SDS011;3469;47.060;15.460;2022-11-24T11:32:17;4.80;;;4.30;;
6860;SDS011;3469;47.060;15.460;2022-11-24T11:35:10;10.83;;;7.33;;
6860;SDS011;3469;47.060;15.460;2022-11-24T11:37:38;9.83;;;6.93;;
6860;SDS011;3469;47.060;15.460;2022-11-24T11:40:13;11.40;;;8.20;;
6860;SDS011;3469;47.060;15.460;2022-11-24T11:42:43;13.50;;;8.30;;
6860;SDS011;3469;47.060;15.460;2022-11-24T11:45:32;9.73;;;8.57;;
6860;SDS011;3469;47.060;15.460;2022-11-24T11:48:08;15.23;;;10.27;;
6860;SDS011;3469;47.060;15.460;2022-11-24T11:50:48;10.50;;;7.97;;
6860;SDS011;3469;47.060;15.460;2022-11-24T11:53:38;9.90;;;7.73;;
6860;SDS011;3469;47.060;15.460;2022-11-24T11:56:14;8.90;;;7.87;;
6860;SDS011;3469;47.060;15.460;2022-11-24T12:01:58;8.10;;;6.53;;
6860;SDS011;3469;47.060;15.460;2022-11-24T12:04:45;8.50;;;6.70;;
6860;SDS011;3469;47.060;15.460;2022-11-24T12:10:10;8.60;;;6.47;;
6860;SDS011;3469;47.060;15.460;2022-11-24T12:15:41;8.67;;;7.30;;
6860;SDS011;3469;47.060;15.460;2022-11-24T12:18:18;8.07;;;6.80;;
6860;SDS011;3469;47.060;15.460;2022-11-24T12:21:14;6.33;;;5.67;;
6860;SDS011;3469;47.060;15.460;2022-11-24T12:23:57;6.43;;;5.37;;
6860;SDS011;3469;47.060;15.460;2022-11-24T12:26:33;6.80;;;5.80;;
6860;SDS011;3469;47.060;15.460;2022-11-24T12:29:17;6.10;;;4.93;;
6860;SDS011;3469;47.060;15.460;2022-11-24T12:31:54;6.07;;;5.00;;
6860;SDS011;3469;47.060;15.460;2022-11-24T12:34:33;5.50;;;4.20;;
6860;SDS011;3469;47.060;15.460;2022-11-24T12:37:10;4.53;;;3.37;;
6860;SDS011;3469;47.060;15.460;2022-11-24T12:39:49;4.47;;;4.07;;
6860;SDS011;3469;47.060;15.460;2022-11-24T12:42:22;5.63;;;3.70;;
6860;SDS011;3469;47.060;15.460;2022-11-24T12:45:02;4.67;;;2.77;;
6860;SDS011;3469;47.060;15.460;2022-11-24T12:50:42;4.50;;;2.67;;
6860;SDS011;3469;47.060;15.460;2022-11-24T12:53:14;4.77;;;2.30;;
6860;SDS011;3469;47.060;15.460;2022-11-24T12:55:44;4.17;;;2.30;;
6860;SDS011;3469;47.060;15.460;2022-11-24T12:58:16;2.00;;;1.80;;
6860;SDS011;3469;47.060;15.460;2022-11-24T13:00:51;2.60;;;1.90;;
6860;SDS011;3469;47.060;15.460;2022-11-24T13:03:33;6.17;;;2.60;;
6860;SDS011;3469;47.060;15.460;2022-11-24T13:06:09;4.30;;;2.27;;
6860;SDS011;3469;47.060;15.460;2022-11-24T13:08:40;3.83;;;2.50;;
6860;SDS011;3469;47.060;15.460;2022-11-24T13:11:25;4.60;;;2.80;;
6860;SDS011;3469;47.060;15.460;2022-11-24T13:14:03;3.87;;;2.57;;
6860;SDS011;3469;47.060;15.460;2022-11-24T13:16:34;4.40;;;2.80;;
6860;SDS011;3469;47.060;15.460;2022-11-24T13:19:35;5.00;;;3.40;;
6860;SDS011;3469;47.060;15.460;2022-11-24T13:22:14;4.83;;;4.03;;
6860;SDS011;3469;47.060;15.460;2022-11-24T13:24:44;5.33;;;3.60;;
6860;SDS011;3469;47.060;15.460;2022-11-24T13:27:26;5.83;;;2.90;;
6860;SDS011;3469;47.060;15.460;2022-11-24T13:29:57;4.17;;;3.10;;
6860;SDS011;3469;47.060;15.460;2022-11-24T13:35:28;5.83;;;2.70;;
6860;SDS011;3469;47.060;15.460;2022-11-24T13:37:58;3.77;;;2.80;;
6860;SDS011;3469;47.060;15.460;2022-11-24T13:40:40;7.00;;;3.00;;
6860;SDS011;3469;47.060;15.460;2022-11-24T13:43:32;8.87;;;3.50;;
6860;SDS011;3469;47.060;15.460;2022-11-24T13:46:01;8.57;;;3.73;;
6860;SDS011;3469;47.060;15.460;2022-11-24T13:51:23;7.63;;;3.73;;
6860;SDS011;3469;47.060;15.460;2022-11-24T13:53:52;10.00;;;4.60;;
6860;SDS011;3469;47.060;15.460;2022-11-24T13:56:25;5.40;;;3.43;;
6860;SDS011;3469;47.060;15.460;2022-11-24T13:58:56;3.33;;;3.03;;
6860;SDS011;3469;47.060;15.460;2022-11-24T14:01:26;3.87;;;3.10;;
6860;SDS011;3469;47.060;15.460;2022-11-24T14:06:57;4.00;;;2.57;;
6860;SDS011;3469;47.060;15.460;2022-11-24T14:09:34;3.30;;;3.00;;
6860;SDS011;3469;47.060;15.460;2022-11-24T14:12:09;5.60;;;3.60;;
6860;SDS011;3469;47.060;15.460;2022-11-24T14:14:40;3.97;;;3.07;;
6860;SDS011;3469;47.060;15.460;2022-11-24T14:17:19;3.87;;;2.80;;
6860;SDS011;3469;47.060;15.460;2022-11-24T14:19:51;4.33;;;3.40;;
6860;SDS011;3469;47.060;15.460;2022-11-24T14:22:20;4.53;;;2.80;;
6860;SDS011;3469;47.060;15.460;2022-11-24T14:24:53;6.40;;;4.00;;
6860;SDS011;3469;47.060;15.460;2022-11-24T14:27:26;6.53;;;3.20;;
6860;SDS011;3469;47.060;15.460;2022-11-24T14:29:57;7.43;;;3.10;;
6860;SDS011;3469;47.060;15.460;2022-11-24T14:32:26;4.90;;;3.43;;
6860;SDS011;3469;47.060;15.460;2022-11-24T14:34:56;4.43;;;3.00;;
6860;SDS011;3469;47.060;15.460;2022-11-24T14:37:25;7.13;;;3.20;;
6860;SDS011;3469;47.060;15.460;2022-11-24T14:39:53;8.40;;;3.90;;
6860;SDS011;3469;47.060;15.460;2022-11-24T14:42:22;4.70;;;4.17;;
6860;SDS011;3469;47.060;15.460;2022-11-24T14:44:51;6.80;;;4.20;;
6860;SDS011;3469;47.060;15.460;2022-11-24T14:47:23;9.40;;;4.47;;
6860;SDS011;3469;47.060;15.460;2022-11-24T14:50:07;5.10;;;3.80;;
6860;SDS011;3469;47.060;15.460;2022-11-24T14:52:41;5.50;;;3.83;;
6860;SDS011;3469;47.060;15.460;2022-11-24T14:55:21;4.37;;;3.80;;
6860;SDS011;3469;47.060;15.460;2022-11-24T14:57:51;10.20;;;4.37;;
6860;SDS011;3469;47.060;15.460;2022-11-24T15:00:24;9.17;;;3.73;;
6860;SDS011;3469;47.060;15.460;2022-11-24T15:02:54;5.00;;;3.80;;
6860;SDS011;3469;47.060;15.460;2022-11-24T15:08:29;7.87;;;4.40;;
6860;SDS011;3469;47.060;15.460;2022-11-24T15:11:01;12.87;;;4.67;;
6860;SDS011;3469;47.060;15.460;2022-11-24T15:13:31;5.00;;;4.00;;
6860;SDS011;3469;47.060;15.460;2022-11-24T15:16:04;9.80;;;4.60;;
6860;SDS011;3469;47.060;15.460;2022-11-24T15:18:36;5.73;;;5.00;;
6860;SDS011;3469;47.060;15.460;2022-11-24T15:21:09;10.80;;;5.30;;
6860;SDS011;3469;47.060;15.460;2022-11-24T15:26:33;8.30;;;5.70;;
6860;SDS011;3469;47.060;15.460;2022-11-24T15:29:07;11.17;;;6.97;;
6860;SDS011;3469;47.060;15.460;2022-11-24T15:31:36;8.03;;;6.20;;
6860;SDS011;3469;47.060;15.460;2022-11-24T15:34:05;10.10;;;7.23;;
6860;SDS011;3469;47.060;15.460;2022-11-24T15:36:34;12.00;;;6.50;;
6860;SDS011;3469;47.060;15.460;2022-11-24T15:39:03;11.90;;;6.97;;
6860;SDS011;3469;47.060;15.460;2022-11-24T15:41:32;9.90;;;7.50;;